createdAt,value
2023-02-27T00:00:21.776Z,-2.80
2023-02-27T00:02:50.227Z,-2.90
2023-02-27T00:05:17.902Z,-2.80
2023-02-27T00:07:45.206Z,-2.90
2023-02-27T00:10:14.071Z,-2.90
2023-02-27T00:12:41.678Z,-2.90
2023-02-27T00:15:10.921Z,-2.90
2023-02-27T00:17:38.536Z,-2.90
2023-02-27T00:20:11.213Z,-2.90
2023-02-27T00:22:39.112Z,-2.80
2023-02-27T00:25:07.919Z,-2.80
2023-02-27T00:27:35.242Z,-2.90
2023-02-27T00:30:02.403Z,-2.90
2023-02-27T00:32:29.636Z,-2.90
2023-02-27T00:34:56.709Z,-2.90
2023-02-27T00:37:24.086Z,-3.00
2023-02-27T00:39:51.236Z,-3.00
2023-02-27T00:42:18.130Z,-3.00
2023-02-27T00:44:45.228Z,-3.00
2023-02-27T00:47:12.215Z,-2.90
2023-02-27T00:49:39.255Z,-3.00
2023-02-27T00:52:06.301Z,-2.90
2023-02-27T00:54:33.289Z,-2.90
2023-02-27T00:57:00.256Z,-2.90
2023-02-27T00:59:27.285Z,-2.90
2023-02-27T01:01:54.360Z,-3.00
2023-02-27T01:04:21.439Z,-3.00
2023-02-27T01:06:48.412Z,-3.00
2023-02-27T01:09:15.611Z,-3.00
2023-02-27T01:11:42.541Z,-3.00
2023-02-27T01:14:09.681Z,-3.10
2023-02-27T01:16:36.728Z,-3.10
2023-02-27T01:19:04.086Z,-3.20
2023-02-27T01:21:31.105Z,-3.10
2023-02-27T01:23:58.179Z,-3.20
2023-02-27T01:26:25.807Z,-3.20
2023-02-27T01:28:52.766Z,-3.20
2023-02-27T01:31:19.764Z,-3.10
2023-02-27T01:33:49.043Z,-3.20
2023-02-27T01:36:16.112Z,-3.20
2023-02-27T01:38:43.066Z,-3.20
2023-02-27T01:41:10.359Z,-3.20
2023-02-27T01:43:54.096Z,-3.30
2023-02-27T01:46:21.076Z,-3.30
2023-02-27T01:48:48.262Z,-3.30
2023-02-27T01:51:20.301Z,-3.40
2023-02-27T01:53:50.925Z,-3.40
2023-02-27T01:56:30.186Z,-3.40
2023-02-27T01:59:01.805Z,-3.40
2023-02-27T02:01:30.774Z,-3.40
2023-02-27T02:04:19.853Z,-3.40
2023-02-27T02:06:50.470Z,-3.40
2023-02-27T02:09:19.672Z,-3.50
2023-02-27T02:11:46.711Z,-3.50
2023-02-27T02:14:13.809Z,-3.50
2023-02-27T02:16:43.769Z,-3.50
2023-02-27T02:19:29.307Z,-3.50
2023-02-27T02:22:33.772Z,-3.50
2023-02-27T02:25:20.890Z,-3.50
2023-02-27T02:28:26.945Z,-3.50
2023-02-27T02:31:12.434Z,-3.40
2023-02-27T02:33:54.291Z,-3.40
2023-02-27T02:36:55.444Z,-3.40
2023-02-27T02:39:52.841Z,-3.50
2023-02-27T02:42:26.967Z,-3.50
2023-02-27T02:45:10.040Z,-3.50
2023-02-27T02:47:42.797Z,-3.60
2023-02-27T02:50:13.052Z,-3.50
2023-02-27T02:53:17.074Z,-3.60
2023-02-27T02:56:01.586Z,-3.50
2023-02-27T02:58:36.230Z,-3.50
2023-02-27T03:01:10.292Z,-3.50
2023-02-27T03:03:49.905Z,-3.60
2023-02-27T03:06:33.570Z,-3.60
2023-02-27T03:09:26.879Z,-3.50
2023-02-27T03:11:57.507Z,-3.50
2023-02-27T03:15:08.504Z,-3.50
2023-02-27T03:17:54.061Z,-3.60
2023-02-27T03:20:37.270Z,-3.60
2023-02-27T03:23:15.291Z,-3.50
2023-02-27T03:25:46.426Z,-3.60
2023-02-27T03:28:19.657Z,-3.50
2023-02-27T03:30:49.816Z,-3.50
2023-02-27T03:33:33.431Z,-3.50
2023-02-27T03:36:37.187Z,-3.60
2023-02-27T03:39:12.378Z,-3.60
2023-02-27T03:41:58.172Z,-3.50
2023-02-27T03:44:52.773Z,-3.60
2023-02-27T03:47:20.506Z,-3.60
2023-02-27T03:49:51.158Z,-3.60
2023-02-27T03:52:20.052Z,-3.60
2023-02-27T03:55:01.838Z,-3.70
2023-02-27T03:57:30.964Z,-3.70
2023-02-27T03:59:58.740Z,-3.60
2023-02-27T04:02:27.109Z,-3.70
2023-02-27T04:04:54.064Z,-3.70
2023-02-27T04:07:54.914Z,-3.70
2023-02-27T04:10:33.984Z,-3.70
2023-02-27T04:13:07.222Z,-3.80
2023-02-27T04:15:56.190Z,-3.80
2023-02-27T04:18:56.742Z,-3.80
2023-02-27T04:21:50.478Z,-3.80
2023-02-27T04:24:26.154Z,-3.70
2023-02-27T04:26:59.585Z,-3.70
2023-02-27T04:29:51.422Z,-3.80
2023-02-27T04:32:43.610Z,-3.70
2023-02-27T04:35:16.614Z,-3.70
2023-02-27T04:38:19.258Z,-3.80
2023-02-27T04:40:56.378Z,-3.70
2023-02-27T04:43:26.365Z,-3.70
2023-02-27T04:45:56.864Z,-3.70
2023-02-27T04:48:30.206Z,-3.80
2023-02-27T04:51:29.230Z,-3.80
2023-02-27T04:54:01.897Z,-3.80
2023-02-27T04:56:36.386Z,-3.80
2023-02-27T04:59:18.371Z,-3.80
2023-02-27T05:01:54.866Z,-3.80
2023-02-27T05:04:25.226Z,-3.80
2023-02-27T05:06:56.051Z,-3.80
2023-02-27T05:09:56.565Z,-3.80
2023-02-27T05:12:34.170Z,-3.80
2023-02-27T05:15:12.344Z,-3.70
2023-02-27T05:17:46.255Z,-3.70
2023-02-27T05:20:15.191Z,-3.80
2023-02-27T05:22:51.106Z,-3.80
2023-02-27T05:25:31.163Z,-3.70
2023-02-27T05:28:11.066Z,-3.80
2023-02-27T05:31:03.256Z,-3.80
2023-02-27T05:33:36.690Z,-3.70
2023-02-27T05:36:14.230Z,-3.70
2023-02-27T05:38:47.274Z,-3.80
2023-02-27T05:41:19.388Z,-3.70
2023-02-27T05:44:00.338Z,-3.70
2023-02-27T05:46:33.330Z,-3.70
2023-02-27T05:49:14.471Z,-3.80
2023-02-27T05:51:46.500Z,-3.80
2023-02-27T05:54:30.180Z,-3.70
2023-02-27T05:56:59.872Z,-3.80
2023-02-27T05:59:39.228Z,-3.80
2023-02-27T06:02:06.540Z,-3.80
2023-02-27T06:04:33.558Z,-3.80
2023-02-27T06:07:01.009Z,-3.80
2023-02-27T06:09:28.122Z,-3.80
2023-02-27T06:11:55.211Z,-3.80
2023-02-27T06:14:22.130Z,-3.80
2023-02-27T06:16:49.316Z,-3.80
2023-02-27T06:19:16.415Z,-3.70
2023-02-27T06:21:43.476Z,-3.70
2023-02-27T06:24:10.681Z,-3.60
2023-02-27T06:26:37.592Z,-3.60
2023-02-27T06:29:05.807Z,-3.70
2023-02-27T06:31:32.791Z,-3.60
2023-02-27T06:33:59.711Z,-3.60
2023-02-27T06:36:29.473Z,-3.50
2023-02-27T06:38:56.777Z,-3.50
2023-02-27T06:41:23.758Z,-3.60
2023-02-27T06:43:50.834Z,-3.60
2023-02-27T06:46:18.003Z,-3.60
2023-02-27T06:48:45.686Z,-3.70
2023-02-27T06:51:12.614Z,-3.70
2023-02-27T06:53:39.663Z,-3.50
2023-02-27T06:56:06.885Z,-3.40
2023-02-27T06:58:33.979Z,-3.30
2023-02-27T07:01:01.188Z,-3.10
2023-02-27T07:03:28.152Z,-3.00
2023-02-27T07:05:56.630Z,-3.00
2023-02-27T07:08:23.543Z,-2.80
2023-02-27T07:10:50.704Z,-2.00
2023-02-27T07:13:19.612Z,-0.60
2023-02-27T07:15:47.004Z,0.70
2023-02-27T07:18:13.940Z,1.60
2023-02-27T07:20:41.072Z,2.80
2023-02-27T07:23:08.072Z,3.60
2023-02-27T07:25:35.147Z,3.80
2023-02-27T07:28:02.335Z,3.70
2023-02-27T07:30:30.964Z,3.00
2023-02-27T07:32:57.949Z,3.50
2023-02-27T07:35:25.226Z,3.90
2023-02-27T07:37:52.586Z,2.90
2023-02-27T07:40:19.978Z,2.10
2023-02-27T07:42:52.720Z,1.60
2023-02-27T07:45:20.101Z,0.90
2023-02-27T07:47:47.439Z,0.90
2023-02-27T07:53:01.149Z,1.50
2023-02-27T07:55:28.088Z,2.00
2023-02-27T07:57:55.033Z,3.20
2023-02-27T08:00:22.420Z,4.10
2023-02-27T08:02:49.490Z,4.70
2023-02-27T08:05:16.487Z,5.60
2023-02-27T08:07:43.589Z,5.30
2023-02-27T08:10:11.394Z,5.30
2023-02-27T08:12:39.381Z,4.00
2023-02-27T08:15:07.259Z,3.70
2023-02-27T08:17:34.233Z,3.30
2023-02-27T08:20:01.268Z,3.00
2023-02-27T08:22:28.217Z,2.50
2023-02-27T08:24:55.084Z,2.00
2023-02-27T08:27:22.048Z,1.70
2023-02-27T08:29:48.938Z,1.50
2023-02-27T08:32:16.473Z,1.30
2023-02-27T08:34:43.706Z,1.10
2023-02-27T08:37:10.880Z,1.40
2023-02-27T08:39:38.272Z,1.30
2023-02-27T08:42:07.315Z,1.20
2023-02-27T08:44:34.920Z,1.40
2023-02-27T08:47:01.891Z,1.60
2023-02-27T08:49:29.004Z,1.90
2023-02-27T08:51:55.955Z,2.00
2023-02-27T08:54:23.083Z,2.20
2023-02-27T08:56:50.024Z,2.10
2023-02-27T08:59:16.996Z,1.90
2023-02-27T09:01:44.429Z,1.90
2023-02-27T09:04:11.940Z,1.80
2023-02-27T09:06:39.370Z,1.50
2023-02-27T09:09:06.757Z,1.40
2023-02-27T09:11:34.160Z,1.60
2023-02-27T09:14:01.263Z,1.50
2023-02-27T09:16:28.754Z,1.50
2023-02-27T09:18:55.956Z,1.40
2023-02-27T09:21:24.855Z,1.50
2023-02-27T09:23:52.834Z,1.70
2023-02-27T09:26:19.789Z,2.10
2023-02-27T09:28:46.866Z,2.10
2023-02-27T09:31:13.974Z,2.20
2023-02-27T09:33:40.894Z,2.10
2023-02-27T09:36:08.872Z,2.30
2023-02-27T09:38:37.169Z,2.40
2023-02-27T09:41:06.175Z,2.50
2023-02-27T09:43:39.735Z,2.60
2023-02-27T09:46:09.690Z,2.70
2023-02-27T09:48:43.214Z,2.50
2023-02-27T09:51:10.374Z,2.50
2023-02-27T09:53:43.489Z,2.30
2023-02-27T09:56:22.911Z,2.40
2023-02-27T09:59:27.064Z,2.40
2023-02-27T10:02:22.297Z,3.10
2023-02-27T10:04:58.427Z,2.70
2023-02-27T10:07:31.050Z,2.50
2023-02-27T10:10:20.987Z,2.70
2023-02-27T10:12:50.941Z,3.00
2023-02-27T10:15:41.858Z,3.00
2023-02-27T10:18:36.089Z,3.00
2023-02-27T10:21:16.067Z,3.20
2023-02-27T10:23:49.867Z,3.10
2023-02-27T10:26:22.873Z,3.30
2023-02-27T10:28:49.912Z,3.10
2023-02-27T10:31:30.314Z,2.90
2023-02-27T10:33:58.227Z,2.90
2023-02-27T10:36:33.752Z,3.20
2023-02-27T10:39:07.166Z,3.60
2023-02-27T10:41:35.999Z,3.50
2023-02-27T10:44:03.073Z,3.40
2023-02-27T10:46:32.415Z,3.60
2023-02-27T10:49:00.786Z,3.70
2023-02-27T10:51:35.140Z,3.30
2023-02-27T10:54:23.726Z,3.20
2023-02-27T10:57:01.341Z,3.00
2023-02-27T10:59:32.974Z,3.00
2023-02-27T11:02:03.638Z,2.80
2023-02-27T11:04:34.592Z,3.10
2023-02-27T11:07:05.179Z,3.60
2023-02-27T11:09:33.769Z,3.50
2023-02-27T11:12:30.307Z,3.40
2023-02-27T11:15:03.100Z,3.20
2023-02-27T11:17:34.708Z,2.90
2023-02-27T11:20:06.509Z,3.00
2023-02-27T11:22:34.024Z,3.20
2023-02-27T11:25:30.596Z,3.30
2023-02-27T11:28:25.331Z,3.00
2023-02-27T11:31:21.048Z,2.90
2023-02-27T11:33:57.644Z,2.50
2023-02-27T11:36:42.581Z,2.50
2023-02-27T11:39:24.204Z,2.70
2023-02-27T11:41:52.176Z,3.00
2023-02-27T11:44:38.814Z,2.90
2023-02-27T11:47:21.487Z,2.80
2023-02-27T11:49:51.520Z,2.90
2023-02-27T11:52:29.623Z,2.90
2023-02-27T11:54:59.874Z,3.10
2023-02-27T11:57:38.568Z,3.20
2023-02-27T12:00:18.368Z,3.00
2023-02-27T12:03:14.245Z,2.90
2023-02-27T12:05:51.832Z,2.90
2023-02-27T12:08:25.156Z,3.00
2023-02-27T12:11:12.372Z,3.30
2023-02-27T12:13:45.605Z,3.50
2023-02-27T12:16:26.838Z,3.80
2023-02-27T12:19:12.161Z,3.90
2023-02-27T12:21:49.570Z,3.80
2023-02-27T12:24:41.024Z,3.80
2023-02-27T12:27:20.856Z,3.00
2023-02-27T12:30:08.176Z,2.50
2023-02-27T12:32:43.982Z,2.90
2023-02-27T12:35:13.748Z,3.40
2023-02-27T12:37:40.686Z,3.10
2023-02-27T12:40:11.470Z,2.40
2023-02-27T12:42:59.412Z,2.00
2023-02-27T12:45:55.260Z,2.10
2023-02-27T12:48:41.274Z,2.30
2023-02-27T12:51:11.046Z,2.60
2023-02-27T12:53:56.360Z,2.70
2023-02-27T12:56:34.423Z,2.50
2023-02-27T12:59:26.648Z,2.90
2023-02-27T13:01:59.623Z,3.50
2023-02-27T13:04:38.782Z,3.40
2023-02-27T13:07:13.615Z,2.90
2023-02-27T13:09:53.840Z,2.10
2023-02-27T13:12:23.809Z,1.80
2023-02-27T13:15:13.992Z,2.00
2023-02-27T13:17:47.382Z,2.10
2023-02-27T13:20:17.368Z,2.00
2023-02-27T13:22:53.946Z,1.80
2023-02-27T13:25:22.264Z,1.80
2023-02-27T13:28:00.375Z,2.30
2023-02-27T13:30:43.934Z,2.60
2023-02-27T13:33:37.581Z,2.60
2023-02-27T13:36:40.198Z,2.60
2023-02-27T13:40:03.673Z,3.20
2023-02-27T13:42:31.083Z,3.60
2023-02-27T13:45:01.499Z,3.10
2023-02-27T13:47:31.491Z,2.90
2023-02-27T13:50:21.248Z,2.70
2023-02-27T13:52:48.742Z,2.30
2023-02-27T13:55:35.331Z,1.90
2023-02-27T13:58:03.912Z,1.70
2023-02-27T14:00:35.627Z,1.80
2023-02-27T14:03:05.522Z,1.70
2023-02-27T14:05:37.042Z,1.60
2023-02-27T14:08:07.274Z,1.40
2023-02-27T14:10:35.718Z,1.20
2023-02-27T14:13:03.871Z,1.30
2023-02-27T14:15:35.817Z,1.50
2023-02-27T14:18:17.859Z,1.80
2023-02-27T14:20:49.953Z,2.10
2023-02-27T14:23:27.127Z,2.20
2023-02-27T14:25:55.742Z,2.00
2023-02-27T14:28:55.652Z,1.80
2023-02-27T14:31:40.524Z,1.60
2023-02-27T14:34:12.358Z,1.80
2023-02-27T14:37:01.850Z,2.00
2023-02-27T14:39:37.609Z,2.50
2023-02-27T14:42:48.708Z,2.90
2023-02-27T14:45:24.433Z,3.30
2023-02-27T14:47:53.064Z,3.20
2023-02-27T14:50:40.969Z,2.80
2023-02-27T14:53:21.946Z,2.60
2023-02-27T14:55:59.427Z,2.30
2023-02-27T14:58:27.854Z,2.00
2023-02-27T15:01:10.095Z,1.90
2023-02-27T15:03:44.227Z,1.80
2023-02-27T15:06:35.965Z,1.70
2023-02-27T15:09:03.900Z,1.60
2023-02-27T15:11:31.244Z,1.50
2023-02-27T15:14:06.480Z,1.50
2023-02-27T15:16:39.458Z,1.60
2023-02-27T15:19:14.185Z,1.80
2023-02-27T15:21:50.274Z,2.00
2023-02-27T15:24:40.648Z,2.10
2023-02-27T15:27:20.166Z,2.00
2023-02-27T15:29:56.093Z,1.90
2023-02-27T15:32:43.452Z,1.70
2023-02-27T15:35:20.294Z,1.50
2023-02-27T15:37:54.088Z,1.50
2023-02-27T15:40:24.718Z,1.60
2023-02-27T15:42:53.658Z,1.70
2023-02-27T15:45:23.862Z,1.70
2023-02-27T15:47:51.177Z,1.80
2023-02-27T15:50:18.076Z,1.90
2023-02-27T15:52:52.540Z,1.90
2023-02-27T15:55:26.392Z,1.90
2023-02-27T15:58:02.886Z,1.80
2023-02-27T16:00:32.893Z,1.60
2023-02-27T16:03:00.207Z,1.50
2023-02-27T16:05:38.378Z,1.40
2023-02-27T16:08:06.989Z,1.30
2023-02-27T16:10:41.631Z,1.20
2023-02-27T16:13:37.184Z,1.10
2023-02-27T16:16:05.539Z,1.10
2023-02-27T16:18:43.963Z,1.10
2023-02-27T16:21:19.712Z,1.00
2023-02-27T16:23:47.271Z,1.00
2023-02-27T16:26:27.728Z,1.00
2023-02-27T16:29:15.335Z,0.90
2023-02-27T16:31:54.877Z,0.90
2023-02-27T16:34:45.265Z,0.90
2023-02-27T16:37:33.965Z,0.80
2023-02-27T16:40:01.000Z,0.70
2023-02-27T16:42:28.101Z,0.60
2023-02-27T16:44:55.116Z,0.60
2023-02-27T16:47:22.983Z,0.50
2023-02-27T16:49:50.230Z,0.50
2023-02-27T16:52:17.213Z,0.40
2023-02-27T16:54:44.354Z,0.40
2023-02-27T16:57:11.942Z,0.40
2023-02-27T16:59:41.165Z,0.30
2023-02-27T17:02:13.419Z,0.10
2023-02-27T17:04:44.252Z,0.00
2023-02-27T17:07:15.947Z,-0.10
2023-02-27T17:09:44.902Z,-0.10
2023-02-27T17:12:11.831Z,-0.10
2023-02-27T17:14:38.951Z,-0.10
2023-02-27T17:17:07.028Z,-0.20
2023-02-27T17:19:34.224Z,-0.20
2023-02-27T17:22:01.279Z,-0.20
2023-02-27T17:24:28.365Z,-0.10
2023-02-27T17:26:55.592Z,-0.20
2023-02-27T17:29:22.787Z,-0.20
2023-02-27T17:31:50.225Z,-0.40
2023-02-27T17:34:17.673Z,-0.50
2023-02-27T17:36:44.683Z,-0.50
2023-02-27T17:39:14.107Z,-0.50
2023-02-27T17:41:42.107Z,-0.60
2023-02-27T17:44:13.876Z,-0.60
2023-02-27T17:46:41.306Z,-0.70
2023-02-27T17:49:08.378Z,-0.70
2023-02-27T17:51:35.537Z,-0.70
2023-02-27T17:54:05.163Z,-0.70
2023-02-27T17:56:32.628Z,-0.80
2023-02-27T17:58:59.743Z,-0.80
2023-02-27T18:01:27.561Z,-0.80
2023-02-27T18:03:55.824Z,-0.90
2023-02-27T18:06:23.872Z,-0.90
2023-02-27T18:08:50.942Z,-0.90
2023-02-27T18:11:21.024Z,-0.90
2023-02-27T18:13:48.761Z,-0.90
2023-02-27T18:16:16.563Z,-0.90
2023-02-27T18:18:44.005Z,-0.90
2023-02-27T18:21:17.109Z,-1.00
2023-02-27T18:23:44.607Z,-1.00
2023-02-27T18:26:32.503Z,-1.10
2023-02-27T18:29:04.180Z,-1.10
2023-02-27T18:31:37.972Z,-1.20
2023-02-27T18:34:06.068Z,-1.30
2023-02-27T18:36:33.348Z,-1.40
2023-02-27T18:39:00.871Z,-1.30
2023-02-27T18:41:29.490Z,-1.40
2023-02-27T18:43:56.946Z,-1.40
2023-02-27T18:46:24.315Z,-1.40
2023-02-27T18:48:51.950Z,-1.40
2023-02-27T18:51:19.754Z,-1.40
2023-02-27T18:53:49.191Z,-1.50
2023-02-27T18:56:19.032Z,-1.50
2023-02-27T18:58:46.609Z,-1.50
2023-02-27T19:01:25.267Z,-1.60
2023-02-27T19:03:54.124Z,-1.60
2023-02-27T19:06:21.235Z,-1.70
2023-02-27T19:08:48.291Z,-1.70
2023-02-27T19:11:26.202Z,-1.60
2023-02-27T19:13:53.207Z,-1.60
2023-02-27T19:16:20.408Z,-1.70
2023-02-27T19:18:47.520Z,-1.60
2023-02-27T19:21:14.634Z,-1.70
2023-02-27T19:23:41.591Z,-1.80
2023-02-27T19:26:08.542Z,-1.80
2023-02-27T19:28:36.504Z,-1.80
2023-02-27T19:31:11.832Z,-1.80
2023-02-27T19:33:39.082Z,-1.70
2023-02-27T19:36:11.625Z,-1.70
2023-02-27T19:38:39.519Z,-1.70
2023-02-27T19:41:09.604Z,-1.70
2023-02-27T19:43:37.473Z,-1.60
2023-02-27T19:46:16.487Z,-1.60
2023-02-27T19:48:43.506Z,-1.60
2023-02-27T19:51:12.703Z,-1.60
2023-02-27T19:53:41.139Z,-1.60
2023-02-27T19:56:11.730Z,-1.60
2023-02-27T19:58:39.818Z,-1.60
2023-02-27T20:01:07.209Z,-1.70
2023-02-27T20:03:35.750Z,-1.70
2023-02-27T20:06:06.486Z,-1.70
2023-02-27T20:08:34.437Z,-1.80
2023-02-27T20:11:04.306Z,-1.80
2023-02-27T20:13:31.736Z,-1.80
2023-02-27T20:16:00.239Z,-1.80
2023-02-27T20:18:29.588Z,-1.90
2023-02-27T20:21:08.366Z,-2.00
2023-02-27T20:23:38.406Z,-2.00
2023-02-27T20:26:19.176Z,-2.10
2023-02-27T20:28:47.787Z,-2.10
2023-02-27T20:31:19.004Z,-2.00
2023-02-27T20:33:46.565Z,-2.00
2023-02-27T20:36:14.327Z,-1.90
2023-02-27T20:38:42.061Z,-2.00
2023-02-27T20:41:15.887Z,-1.90
2023-02-27T20:43:43.926Z,-1.90
2023-02-27T20:46:13.406Z,-1.80
2023-02-27T20:48:40.438Z,-1.80
2023-02-27T20:51:09.958Z,-1.70
2023-02-27T20:53:38.416Z,-1.70
2023-02-27T20:56:06.480Z,-1.60
2023-02-27T20:58:34.053Z,-1.60
2023-02-27T21:01:04.295Z,-1.60
2023-02-27T21:03:38.495Z,-1.50
2023-02-27T21:06:08.196Z,-1.50
2023-02-27T21:08:40.122Z,-1.50
2023-02-27T21:11:12.764Z,-1.40
2023-02-27T21:13:40.309Z,-1.40
2023-02-27T21:16:09.888Z,-1.50
2023-02-27T21:18:38.126Z,-1.40
2023-02-27T21:21:07.311Z,-1.50
2023-02-27T21:23:41.222Z,-1.50
2023-02-27T21:26:23.201Z,-1.50
2023-02-27T21:28:55.610Z,-1.60
2023-02-27T21:31:24.437Z,-1.60
2023-02-27T21:33:52.363Z,-1.70
2023-02-27T21:36:28.499Z,-1.70
2023-02-27T21:39:00.649Z,-1.70
2023-02-27T21:41:28.903Z,-1.80
2023-02-27T21:44:00.702Z,-1.80
2023-02-27T21:46:28.629Z,-1.90
2023-02-27T21:48:55.812Z,-1.90
2023-02-27T21:51:37.055Z,-1.90
2023-02-27T21:54:07.202Z,-1.90
2023-02-27T21:56:34.242Z,-2.00
2023-02-27T21:59:01.999Z,-2.00
2023-02-27T22:01:30.718Z,-2.10
2023-02-27T22:03:58.580Z,-2.10
2023-02-27T22:06:28.702Z,-2.10
2023-02-27T22:08:57.497Z,-2.10
2023-02-27T22:11:26.485Z,-2.10
2023-02-27T22:13:53.893Z,-2.10
2023-02-27T22:16:21.710Z,-2.20
2023-02-27T22:18:49.276Z,-2.20
2023-02-27T22:21:19.750Z,-2.20
2023-02-27T22:23:47.482Z,-2.30
2023-02-27T22:26:17.384Z,-2.20
2023-02-27T22:28:44.545Z,-2.30
2023-02-27T22:31:14.997Z,-2.20
2023-02-27T22:33:43.970Z,-2.30
2023-02-27T22:36:13.033Z,-2.30
2023-02-27T22:38:40.348Z,-2.20
2023-02-27T22:41:17.369Z,-2.30
2023-02-27T22:43:45.451Z,-2.30
2023-02-27T22:46:16.596Z,-2.30
2023-02-27T22:48:43.997Z,-2.40
2023-02-27T22:51:14.572Z,-2.40
2023-02-27T22:53:43.621Z,-2.40
2023-02-27T22:56:15.997Z,-2.40
2023-02-27T22:58:44.580Z,-2.40
2023-02-27T23:01:13.182Z,-2.40
2023-02-27T23:03:41.288Z,-2.50
2023-02-27T23:06:10.307Z,-2.50
2023-02-27T23:08:37.377Z,-2.50
2023-02-27T23:11:05.119Z,-2.50
2023-02-27T23:13:32.351Z,-2.50
2023-02-27T23:16:00.416Z,-2.60
2023-02-27T23:18:27.645Z,-2.50
2023-02-27T23:20:54.950Z,-2.50
2023-02-27T23:23:22.958Z,-2.50
2023-02-27T23:25:49.909Z,-2.50
2023-02-27T23:28:16.808Z,-2.50
2023-02-27T23:30:43.883Z,-2.60
2023-02-27T23:33:10.831Z,-2.70
2023-02-27T23:35:37.816Z,-2.60
2023-02-27T23:38:04.776Z,-2.70
2023-02-27T23:40:31.755Z,-2.60
2023-02-27T23:42:58.683Z,-2.60
2023-02-27T23:45:25.739Z,-2.70
2023-02-27T23:47:54.979Z,-2.70
2023-02-27T23:50:27.745Z,-2.70
2023-02-27T23:52:56.810Z,-2.70
2023-02-27T23:55:24.049Z,-2.70
2023-02-27T23:57:55.780Z,-2.70
